createdAt,value
2023-12-05T00:00:02.973Z,27.02
2023-12-05T00:02:34.954Z,26.23
2023-12-05T00:05:11.296Z,27.27
2023-12-05T00:07:44.634Z,27.25
2023-12-05T00:10:17.496Z,27.73
2023-12-05T00:12:49.579Z,31.38
2023-12-05T00:15:22.009Z,24.67
2023-12-05T00:17:54.408Z,26.58
2023-12-05T00:20:29.669Z,26.25
2023-12-05T00:23:01.553Z,27.20
2023-12-05T00:25:35.192Z,25.65
2023-12-05T00:28:07.480Z,27.35
2023-12-05T00:30:39.833Z,26.98
2023-12-05T00:33:13.113Z,26.05
2023-12-05T00:35:49.296Z,27.42
2023-12-05T00:38:21.213Z,25.73
2023-12-05T00:40:53.675Z,26.23
2023-12-05T00:43:25.446Z,26.40
2023-12-05T00:45:57.723Z,26.00
2023-12-05T00:48:29.810Z,25.52
2023-12-05T00:51:04.782Z,26.60
2023-12-05T00:53:36.742Z,25.63
2023-12-05T00:56:15.968Z,24.92
2023-12-05T00:58:48.875Z,26.45
2023-12-05T01:01:23.145Z,24.88
2023-12-05T01:03:58.282Z,25.90
2023-12-05T01:06:33.554Z,25.38
2023-12-05T01:09:07.544Z,25.65
2023-12-05T01:11:40.165Z,26.25
2023-12-05T01:14:12.399Z,26.48
2023-12-05T01:16:46.632Z,26.20
2023-12-05T01:19:18.889Z,25.92
2023-12-05T01:21:54.273Z,25.23
2023-12-05T01:24:27.409Z,25.05
2023-12-05T01:26:59.973Z,26.55
2023-12-05T01:29:32.155Z,25.98
2023-12-05T01:32:04.561Z,25.38
2023-12-05T01:34:36.789Z,24.52
2023-12-05T01:37:31.743Z,26.73
2023-12-05T01:40:23.538Z,25.60
2023-12-05T01:43:07.965Z,25.63
2023-12-05T01:45:40.321Z,24.35
2023-12-05T01:48:14.861Z,25.98
2023-12-05T01:50:47.913Z,25.13
2023-12-05T01:53:25.077Z,26.10
2023-12-05T01:55:57.221Z,24.27
2023-12-05T01:58:30.101Z,27.60
2023-12-05T02:01:02.251Z,27.00
2023-12-05T02:03:35.386Z,25.52
2023-12-05T02:06:08.030Z,25.85
2023-12-05T02:08:44.034Z,25.58
2023-12-05T02:11:17.896Z,26.00
2023-12-05T02:13:53.384Z,25.13
2023-12-05T02:16:34.874Z,26.25
2023-12-05T02:19:37.927Z,26.88
2023-12-05T02:22:16.175Z,25.90
2023-12-05T02:25:07.961Z,25.92
2023-12-05T02:27:43.918Z,25.77
2023-12-05T02:30:16.321Z,27.77
2023-12-05T02:32:48.511Z,24.50
2023-12-05T02:35:21.294Z,25.15
2023-12-05T02:38:00.917Z,26.85
2023-12-05T02:40:41.494Z,25.33
2023-12-05T02:43:22.987Z,25.67
2023-12-05T02:46:08.663Z,25.90
2023-12-05T02:48:42.938Z,25.80
2023-12-05T02:51:15.722Z,26.73
2023-12-05T02:53:47.656Z,24.42
2023-12-05T02:56:20.189Z,24.45
2023-12-05T02:58:54.729Z,25.95
2023-12-05T03:01:26.934Z,27.00
2023-12-05T03:03:59.215Z,26.05
2023-12-05T03:06:31.550Z,26.77
2023-12-05T03:09:05.068Z,26.73
2023-12-05T03:11:37.209Z,25.35
2023-12-05T03:14:11.748Z,26.70
2023-12-05T03:16:45.256Z,25.38
2023-12-05T03:19:17.956Z,25.38
2023-12-05T03:21:50.655Z,25.77
2023-12-05T03:24:22.589Z,26.55
2023-12-05T03:26:54.740Z,26.88
2023-12-05T03:29:29.707Z,25.10
2023-12-05T03:32:01.801Z,25.77
2023-12-05T03:34:33.804Z,26.48
2023-12-05T03:37:05.906Z,25.02
2023-12-05T03:39:38.002Z,26.85
2023-12-05T03:42:10.412Z,26.27
2023-12-05T03:44:45.025Z,25.83
2023-12-05T03:47:17.271Z,27.20
2023-12-05T03:49:49.331Z,27.25
2023-12-05T03:52:21.901Z,26.45
2023-12-05T03:57:49.835Z,24.23
2023-12-05T04:00:25.296Z,27.15
2023-12-05T04:02:59.419Z,26.25
2023-12-05T04:05:32.723Z,27.02
2023-12-05T04:08:04.974Z,26.90
2023-12-05T04:10:37.689Z,27.30
2023-12-05T04:13:10.285Z,26.27
2023-12-05T04:15:46.299Z,26.35
2023-12-05T04:18:18.683Z,28.23
2023-12-05T04:20:51.482Z,26.58
2023-12-05T04:23:25.398Z,25.60
2023-12-05T04:26:00.655Z,27.83
2023-12-05T04:28:33.712Z,27.60
2023-12-05T04:31:09.401Z,25.80
2023-12-05T04:33:42.871Z,26.92
2023-12-05T04:36:17.480Z,26.90
2023-12-05T04:38:49.777Z,28.25
2023-12-05T04:41:22.272Z,26.90
2023-12-05T04:43:54.515Z,25.52
2023-12-05T04:46:29.994Z,26.77
2023-12-05T04:49:02.330Z,27.52
2023-12-05T04:51:35.509Z,26.48
2023-12-05T04:54:07.893Z,25.77
2023-12-05T04:56:40.504Z,27.08
2023-12-05T04:59:12.921Z,25.63
2023-12-05T05:01:48.196Z,27.63
2023-12-05T05:04:20.880Z,26.88
2023-12-05T05:06:54.084Z,26.88
2023-12-05T05:09:26.258Z,27.50
2023-12-05T05:11:58.690Z,26.42
2023-12-05T05:14:31.066Z,26.40
2023-12-05T05:17:08.734Z,27.15
2023-12-05T05:19:40.934Z,27.08
2023-12-05T05:22:13.511Z,26.23
2023-12-05T05:24:45.897Z,26.33
2023-12-05T05:27:18.860Z,26.60
2023-12-05T05:29:51.278Z,26.67
2023-12-05T05:32:27.097Z,26.98
2023-12-05T05:34:59.494Z,27.92
2023-12-05T05:37:32.091Z,25.92
2023-12-05T05:40:04.227Z,27.65
2023-12-05T05:42:36.914Z,26.58
2023-12-05T05:45:09.993Z,25.52
2023-12-05T05:47:45.769Z,26.13
2023-12-05T05:50:20.994Z,26.27
2023-12-05T05:52:53.872Z,25.88
2023-12-05T05:55:27.634Z,26.35
2023-12-05T05:58:00.110Z,27.45
2023-12-05T06:00:32.419Z,25.15
2023-12-05T06:03:08.080Z,25.52
2023-12-05T06:05:40.422Z,26.05
2023-12-05T06:08:13.331Z,25.98
2023-12-05T06:10:45.499Z,25.58
2023-12-05T06:13:18.490Z,26.40
2023-12-05T06:15:50.674Z,26.20
2023-12-05T06:18:26.110Z,24.95
2023-12-05T06:20:59.373Z,25.85
2023-12-05T06:23:32.093Z,25.83
2023-12-05T06:26:07.414Z,25.77
2023-12-05T06:28:40.501Z,24.63
2023-12-05T06:31:13.082Z,25.90
2023-12-05T06:33:48.507Z,25.90
2023-12-05T06:36:22.659Z,25.60
2023-12-05T06:38:55.347Z,25.27
2023-12-05T06:41:27.873Z,24.60
2023-12-05T06:44:00.502Z,24.52
2023-12-05T06:46:32.882Z,25.75
2023-12-05T06:49:08.430Z,25.20
2023-12-05T06:51:41.319Z,25.42
2023-12-05T06:54:13.946Z,25.45
2023-12-05T06:56:46.269Z,26.02
2023-12-05T06:59:18.936Z,25.63
2023-12-05T07:01:51.443Z,26.40
2023-12-05T07:04:27.117Z,25.38
2023-12-05T07:07:01.109Z,24.50
2023-12-05T07:09:36.109Z,24.75
2023-12-05T07:12:09.612Z,25.92
2023-12-05T07:14:42.655Z,25.73
2023-12-05T07:17:15.373Z,25.45
2023-12-05T07:19:51.349Z,25.27
2023-12-05T07:22:24.131Z,24.77
2023-12-05T07:24:57.179Z,26.15
2023-12-05T07:27:30.232Z,26.23
2023-12-05T07:30:03.292Z,25.40
2023-12-05T07:32:36.031Z,26.88
2023-12-05T07:35:12.332Z,24.27
2023-12-05T07:37:45.190Z,25.50
2023-12-05T07:40:18.994Z,25.48
2023-12-05T07:42:51.599Z,25.50
2023-12-05T07:45:24.772Z,25.67
2023-12-05T07:47:57.656Z,27.83
2023-12-05T07:50:33.385Z,27.27
2023-12-05T07:53:06.089Z,25.25
2023-12-05T07:55:39.339Z,27.08
2023-12-05T07:58:12.055Z,26.73
2023-12-05T08:00:45.234Z,26.40
2023-12-05T08:03:18.094Z,26.77
2023-12-05T08:05:53.996Z,26.42
2023-12-05T08:08:26.772Z,26.63
2023-12-05T08:10:59.734Z,25.80
2023-12-05T08:13:32.843Z,25.15
2023-12-05T08:16:05.953Z,26.00
2023-12-05T08:18:38.722Z,25.55
2023-12-05T08:21:14.900Z,26.42
2023-12-05T08:23:47.130Z,24.65
2023-12-05T08:26:19.732Z,26.20
2023-12-05T08:28:52.021Z,26.17
2023-12-05T08:31:24.653Z,27.17
2023-12-05T08:33:57.259Z,24.63
2023-12-05T08:36:33.584Z,26.73
2023-12-05T08:39:05.848Z,26.55
2023-12-05T08:41:38.451Z,24.92
2023-12-05T08:44:10.813Z,25.38
2023-12-05T08:46:43.418Z,26.73
2023-12-05T08:49:16.035Z,26.50
2023-12-05T08:51:51.599Z,27.00
2023-12-05T08:54:23.909Z,26.83
2023-12-05T08:56:56.571Z,26.23
2023-12-05T08:59:28.816Z,23.67
2023-12-05T09:02:02.370Z,26.75
2023-12-05T09:04:35.563Z,27.05
2023-12-05T09:07:11.228Z,26.45
2023-12-05T09:09:44.241Z,26.67
2023-12-05T09:12:16.991Z,26.48
2023-12-05T09:14:49.371Z,27.10
2023-12-05T09:17:22.935Z,26.50
2023-12-05T09:19:55.216Z,26.30
2023-12-05T09:22:30.739Z,26.00
2023-12-05T09:25:03.338Z,24.88
2023-12-05T09:27:36.270Z,25.88
2023-12-05T09:30:10.474Z,25.42
2023-12-05T09:32:43.307Z,26.67
2023-12-05T09:35:15.665Z,26.38
2023-12-05T09:37:51.417Z,25.08
2023-12-05T09:40:23.890Z,25.17
2023-12-05T09:42:59.067Z,24.48
2023-12-05T09:45:37.083Z,26.15
2023-12-05T09:48:13.182Z,24.55
2023-12-05T09:50:45.614Z,25.42
2023-12-05T09:53:21.971Z,24.83
2023-12-05T09:55:54.667Z,25.10
2023-12-05T09:58:27.907Z,25.27
2023-12-05T10:01:03.209Z,23.85
2023-12-05T10:03:40.891Z,25.27
2023-12-05T10:06:16.465Z,25.20
2023-12-05T10:08:56.371Z,25.50
2023-12-05T10:11:32.182Z,25.05
2023-12-05T10:14:05.560Z,25.40
2023-12-05T10:16:39.274Z,24.85
2023-12-05T10:19:14.589Z,25.15
2023-12-05T10:21:49.160Z,23.92
2023-12-05T10:24:44.717Z,24.90
2023-12-05T10:27:20.017Z,23.35
2023-12-05T10:29:52.258Z,25.15
2023-12-05T10:32:31.816Z,24.38
2023-12-05T10:35:05.531Z,23.15
2023-12-05T10:37:46.625Z,24.60
2023-12-05T10:40:27.307Z,22.83
2023-12-05T10:42:59.744Z,23.23
2023-12-05T10:45:33.162Z,23.85
2023-12-05T10:48:08.659Z,23.42
2023-12-05T10:50:40.930Z,23.73
2023-12-05T10:53:15.380Z,23.98
2023-12-05T10:55:50.374Z,24.38
2023-12-05T10:58:23.812Z,23.63
2023-12-05T11:00:56.676Z,23.85
2023-12-05T11:03:32.675Z,24.45
2023-12-05T11:06:08.528Z,22.27
2023-12-05T11:08:41.323Z,22.20
2023-12-05T11:11:19.049Z,21.70
2023-12-05T11:13:52.883Z,21.30
2023-12-05T11:16:29.968Z,22.85
2023-12-05T11:19:12.839Z,22.92
2023-12-05T11:21:59.427Z,22.40
2023-12-05T11:24:53.148Z,21.88
2023-12-05T11:27:45.743Z,21.90
2023-12-05T11:30:37.470Z,21.45
2023-12-05T11:33:21.518Z,22.20
2023-12-05T11:36:10.020Z,21.38
2023-12-05T11:38:47.468Z,21.33
2023-12-05T11:41:22.321Z,20.55
2023-12-05T11:44:52.276Z,21.88
2023-12-05T11:48:22.752Z,20.67
2023-12-05T11:50:57.617Z,20.55
2023-12-05T11:53:42.684Z,21.48
2023-12-05T11:56:23.184Z,21.40
2023-12-05T11:58:55.106Z,20.63
2023-12-05T12:01:26.587Z,20.85
2023-12-05T12:04:01.247Z,21.80
2023-12-05T12:06:38.124Z,21.60
2023-12-05T12:09:13.467Z,21.02
2023-12-05T12:11:46.473Z,22.23
2023-12-05T12:14:20.995Z,22.02
2023-12-05T12:16:55.108Z,20.88
2023-12-05T12:19:27.273Z,21.60
2023-12-05T12:22:01.979Z,19.23
2023-12-05T12:24:35.177Z,21.65
2023-12-05T12:27:09.008Z,22.17
2023-12-05T12:29:41.543Z,19.98
2023-12-05T12:32:15.628Z,21.65
2023-12-05T12:34:50.033Z,21.55
2023-12-05T12:37:27.594Z,21.20
2023-12-05T12:40:02.734Z,21.15
2023-12-05T12:42:35.395Z,21.38
2023-12-05T12:45:09.567Z,19.63
2023-12-05T12:47:41.521Z,21.33
2023-12-05T12:50:13.917Z,21.27
2023-12-05T12:52:51.023Z,21.20
2023-12-05T12:55:36.094Z,21.50
2023-12-05T12:58:08.983Z,22.50
2023-12-05T13:00:43.649Z,21.33
2023-12-05T13:03:16.105Z,21.52
2023-12-05T13:05:48.499Z,21.38
2023-12-05T13:08:23.998Z,22.98
2023-12-05T13:10:57.033Z,22.52
2023-12-05T13:13:29.178Z,23.80
2023-12-05T13:16:01.118Z,23.67
2023-12-05T13:18:50.520Z,22.70
2023-12-05T13:21:37.042Z,22.80
2023-12-05T13:24:14.151Z,22.80
2023-12-05T13:26:48.014Z,23.45
2023-12-05T13:29:21.276Z,21.85
2023-12-05T13:31:54.448Z,24.35
2023-12-05T13:34:28.672Z,24.35
2023-12-05T13:37:01.557Z,24.45
2023-12-05T13:39:36.404Z,22.98
2023-12-05T13:42:08.603Z,23.60
2023-12-05T13:44:44.900Z,23.42
2023-12-05T13:47:17.030Z,24.80
2023-12-05T13:49:49.727Z,24.08
2023-12-05T13:52:29.535Z,25.00
2023-12-05T13:55:05.535Z,25.05
2023-12-05T13:57:37.689Z,24.52
2023-12-05T14:00:28.902Z,24.55
2023-12-05T14:03:07.584Z,25.13
2023-12-05T14:05:43.505Z,26.23
2023-12-05T14:08:16.452Z,26.13
2023-12-05T14:10:52.189Z,24.77
2023-12-05T14:13:25.063Z,26.77
2023-12-05T14:15:59.617Z,25.20
2023-12-05T14:18:36.094Z,26.55
2023-12-05T14:21:10.362Z,25.23
2023-12-05T14:23:42.768Z,26.00
2023-12-05T14:26:17.524Z,26.40
2023-12-05T14:28:49.449Z,26.30
2023-12-05T14:31:21.200Z,28.77
2023-12-05T14:33:53.250Z,26.30
2023-12-05T14:36:26.664Z,30.05
2023-12-05T14:39:07.945Z,28.88
2023-12-05T14:41:46.921Z,28.17
2023-12-05T14:44:20.228Z,28.85
2023-12-05T14:46:54.178Z,28.52
2023-12-05T14:49:28.021Z,29.88
2023-12-05T14:51:59.587Z,29.90
2023-12-05T14:54:32.455Z,27.42
2023-12-05T14:57:06.939Z,30.27
2023-12-05T14:59:39.809Z,28.60
2023-12-05T15:02:13.246Z,29.35
2023-12-05T15:04:50.425Z,29.35
2023-12-05T15:07:26.746Z,30.98
2023-12-05T15:10:03.963Z,28.17
2023-12-05T15:12:40.869Z,31.02
2023-12-05T15:15:19.233Z,29.35
2023-12-05T15:17:58.627Z,29.70
2023-12-05T15:20:34.477Z,30.40
2023-12-05T15:23:12.344Z,31.10
2023-12-05T15:25:49.458Z,31.25
2023-12-05T15:28:29.826Z,29.95
2023-12-05T15:31:06.417Z,30.52
2023-12-05T15:33:37.973Z,32.22
2023-12-05T15:36:12.877Z,31.73
2023-12-05T15:38:45.718Z,31.80
2023-12-05T15:41:18.971Z,32.28
2023-12-05T15:43:53.748Z,33.60
2023-12-05T15:46:26.637Z,34.47
2023-12-05T15:49:00.242Z,34.92
2023-12-05T15:51:39.702Z,33.33
2023-12-05T15:54:11.216Z,34.85
2023-12-05T15:56:43.344Z,35.53
2023-12-05T15:59:20.962Z,35.92
2023-12-05T16:01:52.829Z,36.53
2023-12-05T16:04:24.737Z,36.10
2023-12-05T16:06:58.538Z,37.38
2023-12-05T16:09:33.419Z,37.03
2023-12-05T16:12:05.526Z,35.58
2023-12-05T16:14:42.231Z,35.85
2023-12-05T16:17:13.984Z,37.47
2023-12-05T16:19:45.779Z,38.47
2023-12-05T16:22:17.794Z,37.55
2023-12-05T16:24:49.449Z,36.97
2023-12-05T16:27:22.118Z,38.92
2023-12-05T16:29:57.041Z,38.50
2023-12-05T16:32:30.250Z,37.05
2023-12-05T16:35:02.802Z,38.00
2023-12-05T16:37:36.555Z,39.30
2023-12-05T16:40:23.223Z,40.13
2023-12-05T16:42:56.022Z,38.70
2023-12-05T16:45:30.812Z,40.33
2023-12-05T16:48:05.510Z,38.60
2023-12-05T16:50:37.868Z,38.53
2023-12-05T16:53:11.379Z,39.10
2023-12-05T16:55:44.171Z,38.05
2023-12-05T16:58:20.676Z,37.80
2023-12-05T17:00:56.826Z,39.80
2023-12-05T17:03:29.193Z,38.50
2023-12-05T17:06:01.351Z,39.17
2023-12-05T17:08:34.394Z,39.72
2023-12-05T17:11:07.016Z,40.03
2023-12-05T17:13:38.949Z,38.20
2023-12-05T17:16:13.663Z,39.80
2023-12-05T17:18:47.661Z,38.50
2023-12-05T17:21:20.763Z,37.60
2023-12-05T17:23:53.250Z,39.08
2023-12-05T17:26:26.274Z,38.50
2023-12-05T17:28:58.234Z,40.97
2023-12-05T17:31:32.800Z,39.45
2023-12-05T17:34:05.134Z,39.78
2023-12-05T17:36:37.110Z,36.53
2023-12-05T17:39:08.844Z,38.42
2023-12-05T17:41:40.592Z,39.38
2023-12-05T17:44:12.333Z,40.67
2023-12-05T17:46:46.669Z,39.08
2023-12-05T17:49:19.643Z,38.85
2023-12-05T17:51:56.691Z,40.10
2023-12-05T17:54:47.952Z,39.38
2023-12-05T17:57:24.070Z,39.67
2023-12-05T17:59:59.147Z,39.75
2023-12-05T18:02:36.266Z,42.63
2023-12-05T18:05:10.379Z,41.38
2023-12-05T18:07:54.458Z,40.92
2023-12-05T18:10:31.236Z,41.20
2023-12-05T18:13:03.155Z,40.33
2023-12-05T18:15:35.945Z,42.65
2023-12-05T18:18:15.668Z,40.42
2023-12-05T18:21:21.413Z,41.25
2023-12-05T18:23:54.312Z,41.05
2023-12-05T18:26:29.587Z,42.05
2023-12-05T18:29:01.913Z,43.47
2023-12-05T18:31:34.482Z,42.80
2023-12-05T18:34:09.808Z,43.08
2023-12-05T18:36:42.445Z,44.45
2023-12-05T18:39:14.815Z,45.33
2023-12-05T18:41:47.649Z,44.67
2023-12-05T18:44:19.799Z,44.25
2023-12-05T18:46:52.488Z,43.45
2023-12-05T18:49:29.225Z,45.38
2023-12-05T18:52:02.620Z,44.40
2023-12-05T18:54:39.581Z,44.17
2023-12-05T18:57:13.920Z,45.10
2023-12-05T18:59:47.048Z,44.13
2023-12-05T19:02:20.090Z,43.05
2023-12-05T19:04:57.204Z,41.00
2023-12-05T19:07:30.402Z,42.88
2023-12-05T19:10:08.153Z,41.80
2023-12-05T19:19:19.421Z,43.30
2023-12-05T19:21:54.506Z,44.83
2023-12-05T19:24:26.469Z,42.83
2023-12-05T19:27:00.665Z,43.17
2023-12-05T19:29:33.737Z,42.35
2023-12-05T19:32:08.766Z,59.20
2023-12-05T19:34:43.859Z,45.20
2023-12-05T19:37:22.039Z,44.53
2023-12-05T19:39:53.940Z,44.92
2023-12-05T19:42:27.635Z,43.08
2023-12-05T19:44:59.691Z,43.08
2023-12-05T19:47:34.881Z,43.97
2023-12-05T19:50:15.406Z,43.28
2023-12-05T19:52:51.086Z,43.28
2023-12-05T19:55:26.950Z,41.70
2023-12-05T19:58:01.580Z,42.88
2023-12-05T20:00:34.074Z,43.28
2023-12-05T20:03:08.797Z,42.50
2023-12-05T20:05:40.976Z,42.50
2023-12-05T20:08:16.196Z,42.35
2023-12-05T20:10:50.350Z,43.35
2023-12-05T20:13:22.631Z,41.63
2023-12-05T20:15:55.845Z,42.67
2023-12-05T20:18:30.731Z,43.20
2023-12-05T20:21:03.067Z,41.40
2023-12-05T20:23:38.213Z,42.20
2023-12-05T20:26:10.276Z,44.50
2023-12-05T20:28:42.599Z,42.70
2023-12-05T20:31:15.347Z,43.80
2023-12-05T20:33:47.945Z,42.22
2023-12-05T20:36:19.928Z,42.05
2023-12-05T20:38:55.223Z,41.05
2023-12-05T20:41:27.221Z,42.92
2023-12-05T20:44:00.124Z,41.35
2023-12-05T20:46:32.197Z,42.47
2023-12-05T20:49:06.250Z,41.40
2023-12-05T20:51:52.648Z,43.20
2023-12-05T20:54:27.732Z,43.72
2023-12-05T20:56:59.805Z,41.70
2023-12-05T20:59:32.366Z,42.65
2023-12-05T21:02:06.488Z,42.63
2023-12-05T21:04:44.627Z,42.25
2023-12-05T21:07:20.085Z,40.50
2023-12-05T21:09:55.364Z,41.97
2023-12-05T21:12:27.361Z,41.97
2023-12-05T21:15:12.338Z,42.25
2023-12-05T21:17:47.746Z,42.00
2023-12-05T21:20:23.211Z,40.95
2023-12-05T21:23:06.683Z,41.33
2023-12-05T21:25:41.662Z,40.10
2023-12-05T21:28:17.476Z,40.72
2023-12-05T21:30:55.831Z,41.42
2023-12-05T21:33:27.943Z,39.90
2023-12-05T21:36:00.811Z,41.58
2023-12-05T21:38:34.668Z,41.47
2023-12-05T21:41:12.201Z,40.97
2023-12-05T21:43:44.125Z,41.67
2023-12-05T21:46:24.962Z,42.53
2023-12-05T21:48:57.085Z,40.47
2023-12-05T21:51:32.211Z,39.65
2023-12-05T21:54:04.557Z,41.97
2023-12-05T21:56:41.672Z,40.90
2023-12-05T21:59:16.999Z,40.42
2023-12-05T22:01:52.100Z,42.45
2023-12-05T22:04:25.497Z,41.83
2023-12-05T22:06:59.768Z,41.13
2023-12-05T22:09:32.424Z,43.00
2023-12-05T22:12:07.766Z,43.30
2023-12-05T22:14:42.227Z,43.25
2023-12-05T22:17:19.724Z,42.40
2023-12-05T22:19:51.330Z,44.25
2023-12-05T22:22:24.951Z,45.22
2023-12-05T22:25:00.032Z,46.75
2023-12-05T22:34:31.675Z,42.42
2023-12-05T22:37:16.937Z,41.92
2023-12-05T22:39:49.521Z,42.25
2023-12-05T22:45:07.964Z,42.15
2023-12-05T22:47:42.665Z,42.72
2023-12-05T22:50:14.643Z,41.40
2023-12-05T22:52:46.656Z,43.53
2023-12-05T22:55:18.556Z,43.22
2023-12-05T22:57:50.702Z,43.40
2023-12-05T23:00:25.653Z,43.45
2023-12-05T23:03:04.994Z,45.17
2023-12-05T23:05:37.573Z,44.20
2023-12-05T23:08:09.766Z,44.55
2023-12-05T23:10:41.383Z,42.88
2023-12-05T23:13:13.486Z,45.22
2023-12-05T23:15:45.354Z,45.80
2023-12-05T23:18:20.871Z,45.53
2023-12-05T23:20:53.689Z,45.35
2023-12-05T23:23:25.665Z,45.60
2023-12-05T23:25:58.100Z,44.33
2023-12-05T23:28:31.537Z,45.83
2023-12-05T23:31:04.876Z,44.47
2023-12-05T23:33:39.850Z,44.13
2023-12-05T23:36:13.271Z,46.30
2023-12-05T23:38:45.360Z,44.92
2023-12-05T23:41:19.896Z,44.75
2023-12-05T23:43:52.300Z,46.75
2023-12-05T23:46:23.999Z,46.30
2023-12-05T23:48:58.745Z,45.70
2023-12-05T23:51:30.559Z,44.30
2023-12-05T23:54:02.510Z,44.33
2023-12-05T23:56:34.559Z,46.25
2023-12-05T23:59:06.775Z,47.30
